Time;durP1;ratioP1;P1;durP2;ratioP2;P2;SDS_P1;SDS_P2;PMS_P1;PMS_P2;Temp;Humidity;BMP_temperature;BMP_pressure;BME280_temperature;BME280_humidity;BME280_pressure;Samples;Min_cycle;Max_cycle;Signal;HPM_P1;HPM_P2
2022/05/03 00:00:16;;;;;;;31.05;18.60;;;;;;;10.26;64.26;100530.57;1683762;84;26526;-78
2022/05/03 00:03:16;;;;;;;31.95;18.42;;;;;;;10.25;64.28;100540.95;1692340;82;26110;-79
2022/05/03 00:06:07;;;;;;;31.50;18.57;;;;;;;10.27;64.09;100532.22;1682642;82;25947;-78
2022/05/03 00:08:53;;;;;;;28.85;18.70;;;;;;;10.33;64.08;100536.85;1695165;84;25743;-78
2022/05/03 00:11:37;;;;;;;29.23;19.20;;;;;;;10.35;64.01;100532.95;1696939;84;26626;-78
2022/05/03 00:14:24;;;;;;;29.90;20.45;;;;;;;10.37;63.86;100531.44;1698263;84;25570;-78
2022/05/03 00:16:53;;;;;;;27.87;19.65;;;;;;;10.38;63.58;100527.23;1698172;84;27458;-78
2022/05/03 00:19:19;;;;;;;40.50;24.43;;;;;;;10.42;63.64;100527.67;1697346;84;25932;-78
2022/05/03 00:21:48;;;;;;;29.18;20.15;;;;;;;10.43;63.50;100525.33;1697693;84;25735;-79
2022/05/03 00:24:16;;;;;;;30.20;20.15;;;;;;;10.43;63.37;100523.49;1697908;84;25811;-78
2022/05/03 00:26:43;;;;;;;32.60;21.30;;;;;;;10.45;63.34;100525.47;1697556;84;25805;-79
2022/05/03 00:29:11;;;;;;;29.10;20.15;;;;;;;10.47;63.24;100523.94;1675575;84;27464;-78
2022/05/03 00:31:38;;;;;;;29.05;21.37;;;;;;;10.49;63.08;100524.58;1683219;84;25832;-78
2022/05/03 00:34:05;;;;;;;27.50;20.45;;;;;;;10.50;62.99;100528.39;1679783;84;25526;-78
2022/05/03 00:36:31;;;;;;;26.57;19.20;;;;;;;10.50;63.10;100520.89;1682930;84;26624;-78
2022/05/03 00:38:57;;;;;;;31.77;20.50;;;;;;;10.51;63.14;100526.05;1690064;84;25725;-78
2022/05/03 00:41:47;;;;;;;30.97;19.62;;;;;;;10.50;63.12;100523.57;1694633;83;27462;-78
2022/05/03 00:44:58;;;;;;;30.62;19.62;;;;;;;10.49;63.02;100527.25;1682620;84;25814;-79
2022/05/03 00:47:35;;;;;;;27.73;17.87;;;;;;;10.45;62.93;100522.80;1698020;84;34487;-77
2022/05/03 00:50:29;;;;;;;33.05;19.60;;;;;;;10.45;62.96;100519.28;1698114;84;25848;-78
2022/05/03 00:53:06;;;;;;;29.48;19.40;;;;;;;10.44;62.87;100519.78;1688877;84;25928;-77
2022/05/03 00:55:41;;;;;;;32.42;20.05;;;;;;;10.43;62.91;100522.66;1697680;84;27488;-77
2022/05/03 00:58:19;;;;;;;28.85;20.05;;;;;;;10.43;63.04;100527.51;1687729;84;25910;-77
2022/05/03 01:00:59;;;;;;;27.60;19.52;;;;;;;10.42;63.06;100530.34;1694236;84;25717;-78
2022/05/03 01:03:51;;;;;;;27.65;18.45;;;;;;;10.37;63.09;100522.88;1693299;84;25852;-78
2022/05/03 01:06:37;;;;;;;28.50;19.02;;;;;;;10.35;63.33;100529.46;1681085;84;26119;-77
2022/05/03 01:09:09;;;;;;;24.98;18.00;;;;;;;10.30;63.33;100524.66;1689443;84;27541;-77
2022/05/03 01:11:47;;;;;;;28.15;19.35;;;;;;;10.22;63.33;100531.46;1687740;84;25613;-77
2022/05/03 01:14:37;;;;;;;28.32;17.62;;;;;;;10.16;63.64;100521.47;1698048;84;25868;-78
2022/05/03 01:17:08;;;;;;;25.50;18.23;;;;;;;10.16;63.67;100533.52;1696772;84;26332;-77
2022/05/03 01:19:49;;;;;;;29.60;17.77;;;;;;;10.19;63.73;100533.66;1681060;84;25834;-77
2022/05/03 01:22:42;;;;;;;24.10;17.23;;;;;;;10.18;63.72;100531.48;1691740;84;27478;-77
2022/05/03 01:25:26;;;;;;;26.57;18.15;;;;;;;10.20;63.67;100529.98;1697360;84;25816;-78
2022/05/03 01:28:00;;;;;;;27.80;18.12;;;;;;;10.18;63.66;100530.68;1688014;84;25763;-77
2022/05/03 01:30:31;;;;;;;30.72;18.80;;;;;;;10.17;63.54;100525.83;1697948;84;25778;-77
2022/05/03 01:33:08;;;;;;;28.17;17.70;;;;;;;10.24;64.30;100534.78;1698146;84;25950;-77
2022/05/03 01:35:40;;;;;;;28.35;17.35;;;;;;;10.24;64.30;100534.78;1683725;84;27537;-77
2022/05/03 01:38:29;;;;;;;26.15;17.37;;;;;;;10.25;63.49;100536.42;1679913;84;26542;-77
2022/05/03 01:41:30;;;;;;;27.10;16.30;;;;;;;10.27;63.48;100532.22;1688683;84;25809;-77
2022/05/03 01:44:26;;;;;;;26.95;17.40;;;;;;;10.27;63.43;100534.39;1680161;84;26564;-77
2022/05/03 01:47:04;;;;;;;23.22;16.02;;;;;;;10.29;63.58;100540.89;1686906;84;25999;-77
2022/05/03 01:53:12;;;;;;;23.80;16.23;;;;;;;10.26;63.51;100539.44;1675627;84;25783;-77
2022/05/03 01:55:53;;;;;;;23.47;16.17;;;;;;;10.20;63.46;100538.82;1697852;84;26490;-77
2022/05/03 01:58:47;;;;;;;26.60;15.35;;;;;;;10.19;63.33;100545.70;1697366;84;25948;-78
2022/05/03 02:01:40;;;;;;;25.43;15.18;;;;;;;10.18;63.31;100541.38;1680866;84;26199;-77
2022/05/03 02:04:44;;;;;;;24.18;14.40;;;;;;;10.13;63.30;100540.59;1690507;84;27645;-77
2022/05/03 02:07:22;;;;;;;21.30;14.78;;;;;;;10.12;63.28;100537.59;1670675;84;25965;-77
2022/05/03 02:10:09;;;;;;;22.52;14.60;;;;;;;10.12;63.20;100536.25;1688209;84;25876;-78
2022/05/03 02:12:35;;;;;;;22.00;14.15;;;;;;;10.14;63.19;100539.56;1641218;84;26571;-77
2022/05/03 02:15:09;;;;;;;21.27;15.18;;;;;;;10.15;63.07;100538.56;1698087;84;25815;-77
2022/05/03 02:17:54;;;;;;;22.90;14.70;;;;;;;10.16;62.95;100538.06;1697720;84;28288;-77
2022/05/03 02:21:02;;;;;;;24.20;14.85;;;;;;;10.15;62.96;100533.21;1671713;84;26577;-77
2022/05/03 02:23:58;;;;;;;19.98;13.68;;;;;;;10.15;62.88;100543.08;1697607;84;26015;-77
2022/05/03 02:26:49;;;;;;;20.00;14.00;;;;;;;10.13;62.71;100535.25;1697227;84;25831;-77
2022/05/03 02:29:24;;;;;;;25.97;14.05;;;;;;;10.12;62.63;100538.09;1697466;84;25796;-77
2022/05/03 02:32:04;;;;;;;19.60;13.00;;;;;;;10.08;62.51;100533.09;1687218;84;27473;-78
2022/05/03 02:34:48;;;;;;;20.30;13.55;;;;;;;10.05;62.53;100526.75;1697588;84;25805;-77
2022/05/03 02:37:24;;;;;;;21.50;13.88;;;;;;;10.04;62.54;100531.80;1697637;84;25722;-78
2022/05/03 02:40:02;;;;;;;19.98;12.90;;;;;;;10.01;62.52;100524.13;1698468;84;25878;-78
2022/05/03 02:42:29;;;;;;;23.10;13.35;;;;;;;10.00;62.49;100526.50;1696948;84;25826;-77
2022/05/03 02:44:57;;;;;;;21.48;13.43;;;;;;;9.99;62.48;100527.50;1680764;84;27622;-77
2022/05/03 02:47:31;;;;;;;27.25;13.68;;;;;;;9.97;62.37;100529.53;1669898;84;25863;-77
2022/05/03 02:50:05;;;;;;;26.45;14.28;;;;;;;9.96;62.41;100529.72;1687637;84;26406;-77
2022/05/03 02:52:55;;;;;;;20.12;13.18;;;;;;;9.93;62.39;100525.56;1697803;84;25842;-77
2022/05/03 02:55:29;;;;;;;19.98;13.30;;;;;;;9.92;62.33;100524.42;1698060;84;25862;-77
2022/05/03 02:58:45;;;;;;;23.80;13.98;;;;;;;9.86;62.27;100532.66;1696643;84;28399;-77
2022/05/03 03:01:50;;;;;;;17.67;12.78;;;;;;;9.85;62.35;100528.84;1698192;84;25920;-77
2022/05/03 03:04:48;;;;;;;17.67;12.93;;;;;;;9.78;62.27;100527.91;1680965;84;25296;-77
2022/05/03 03:07:21;;;;;;;21.80;12.53;;;;;;;9.68;62.46;100533.53;1682291;84;25756;-77
2022/05/03 03:09:51;;;;;;;20.95;12.58;;;;;;;9.60;62.55;100529.58;1687453;84;26413;-78
2022/05/03 03:12:48;;;;;;;29.77;12.30;;;;;;;9.57;62.63;100527.28;1678525;84;27496;-78
2022/05/03 03:15:16;;;;;;;20.48;12.58;;;;;;;9.52;62.64;100534.17;1681024;84;25911;-78
2022/05/03 03:17:48;;;;;;;20.17;12.23;;;;;;;9.50;62.91;100534.86;1656810;84;25885;-78
2022/05/03 03:20:17;;;;;;;22.20;12.95;;;;;;;9.49;62.71;100538.56;1678857;84;25773;-78
2022/05/03 03:22:47;;;;;;;18.92;11.83;;;;;;;9.47;62.89;100538.75;1682446;84;26589;-78
2022/05/03 03:25:19;;;;;;;19.42;12.98;;;;;;;9.46;62.84;100538.91;1680577;84;27474;-78
2022/05/03 03:27:49;;;;;;;19.30;12.88;;;;;;;9.46;62.78;100548.27;1682270;83;25871;-78
2022/05/03 03:30:17;;;;;;;16.23;11.50;;;;;;;9.46;62.74;100541.09;1677456;84;25760;-78
2022/05/03 03:32:51;;;;;;;17.98;11.80;;;;;;;9.46;62.78;100545.59;1678848;84;25857;-78
2022/05/03 03:35:19;;;;;;;19.67;12.60;;;;;;;9.47;62.91;100552.62;1680332;84;25824;-78
2022/05/03 03:37:49;;;;;;;16.62;12.20;;;;;;;9.46;62.69;100544.26;1653856;84;27447;-78
2022/05/03 03:40:18;;;;;;;20.05;11.40;;;;;;;9.47;62.67;100547.27;1679425;84;25909;-78
2022/05/03 03:42:46;;;;;;;16.20;11.55;;;;;;;9.49;62.56;100551.94;1679072;84;25926;-79
2022/05/03 03:45:15;;;;;;;18.07;11.12;;;;;;;9.47;62.51;100552.62;1680756;84;25798;-78
2022/05/03 03:47:44;;;;;;;17.82;10.30;;;;;;;9.47;62.60;100557.97;1684325;84;26516;-78
2022/05/03 03:50:11;;;;;;;16.97;10.60;;;;;;;9.47;62.53;100552.62;1681297;84;27485;-78
2022/05/03 03:52:42;;;;;;;19.32;11.63;;;;;;;9.48;62.56;100555.60;1677677;84;25907;-78
2022/05/03 03:55:11;;;;;;;17.17;10.10;;;;;;;9.49;62.54;100557.28;1679213;84;25847;-78
2022/05/03 03:57:38;;;;;;;17.27;10.75;;;;;;;9.49;62.63;100563.47;1694785;83;25803;-78
2022/05/03 04:00:11;;;;;;;18.35;12.10;;;;;;;9.51;62.54;100551.25;1696773;84;25827;-78
2022/05/03 04:02:41;;;;;;;15.98;9.83;;;;;;;9.51;62.57;100550.75;1696580;82;27462;-78
2022/05/03 04:05:11;;;;;;;18.60;10.32;;;;;;;9.52;62.53;100553.73;1694859;84;25949;-78
2022/05/03 04:07:38;;;;;;;14.23;10.30;;;;;;;9.52;62.65;100556.91;1691757;84;25312;-78
2022/05/03 04:10:05;;;;;;;17.95;10.82;;;;;;;9.48;62.70;100554.27;1694919;84;25940;-78
2022/05/03 04:12:32;;;;;;;17.30;11.08;;;;;;;9.44;62.87;100555.14;1694368;84;25847;-79
2022/05/03 04:14:58;;;;;;;19.85;11.25;;;;;;;9.47;63.01;100561.98;1694966;84;27455;-79
2022/05/03 04:17:24;;;;;;;19.57;11.57;;;;;;;9.52;63.02;100557.73;1696475;84;25840;-79
2022/05/03 04:19:51;;;;;;;18.48;11.00;;;;;;;9.55;63.04;100556.05;1701136;82;26439;-79
2022/05/03 04:22:30;;;;;;;18.65;11.68;;;;;;;9.58;63.18;100553.53;1697864;82;26344;-79
2022/05/03 04:24:57;;;;;;;18.62;12.18;;;;;;;9.60;63.19;100560.33;1694404;84;25764;-79
2022/05/03 04:27:24;;;;;;;17.75;12.45;;;;;;;9.64;63.19;100563.50;1698058;82;28472;-78
2022/05/03 04:29:52;;;;;;;20.60;12.75;;;;;;;9.67;63.22;100571.14;1696586;82;25580;-78
2022/05/03 04:32:18;;;;;;;19.35;11.88;;;;;;;9.71;63.27;100569.79;1697987;82;25735;-78
2022/05/03 04:34:44;;;;;;;19.75;11.05;;;;;;;9.75;63.18;100572.42;1696683;82;26490;-79
2022/05/03 04:37:12;;;;;;;16.15;11.10;;;;;;;9.77;63.20;100581.90;1694055;82;25951;-78
2022/05/03 04:39:38;;;;;;;16.97;11.40;;;;;;;9.80;63.36;100574.86;1696977;82;27511;-78
2022/05/03 04:42:06;;;;;;;13.45;10.35;;;;;;;9.82;63.39;100579.52;1696220;84;25955;-79
2022/05/03 04:44:33;;;;;;;14.93;10.15;;;;;;;9.84;63.29;100582.84;1697355;82;25881;-78
2022/05/03 04:46:59;;;;;;;16.95;10.63;;;;;;;9.89;63.17;100579.63;1698433;82;26344;-78
2022/05/03 04:49:25;;;;;;;18.82;9.80;;;;;;;9.92;63.15;100581.95;1701321;82;25785;-78
2022/05/03 04:51:52;;;;;;;14.23;9.53;;;;;;;9.92;63.01;100584.09;1695812;84;28258;-78
2022/05/03 04:54:18;;;;;;;15.35;10.50;;;;;;;9.97;63.22;100578.20;1700840;82;26502;-79
2022/05/03 04:56:53;;;;;;;15.65;10.68;;;;;;;10.01;63.00;100578.98;1697601;82;25949;-78
2022/05/03 04:59:19;;;;;;;16.20;11.08;;;;;;;10.06;63.27;100583.80;1697826;82;25885;-78
2022/05/03 05:01:46;;;;;;;14.15;8.78;;;;;;;10.11;63.21;100584.12;1697771;82;26133;-79
2022/05/03 05:04:12;;;;;;;15.30;8.10;;;;;;;10.13;62.79;100586.59;1674153;84;27477;-78
2022/05/03 05:06:39;;;;;;;11.20;8.18;;;;;;;10.15;62.73;100588.08;1695985;84;25785;-78
2022/05/03 05:09:05;;;;;;;14.78;7.87;;;;;;;10.20;62.83;100586.20;1697875;82;25751;-78
2022/05/03 05:11:32;;;;;;;13.08;8.55;;;;;;;10.28;62.70;100586.09;1692871;84;26628;-78
2022/05/03 05:13:58;;;;;;;11.68;8.15;;;;;;;10.35;62.52;100586.49;1694037;84;26565;-78
2022/05/03 05:16:24;;;;;;;12.78;8.55;;;;;;;10.46;62.60;100590.05;1699491;82;28378;-78
2022/05/03 05:18:52;;;;;;;13.55;8.90;;;;;;;10.53;62.20;100592.31;1668846;84;25349;-78
2022/05/03 05:21:19;;;;;;;13.00;8.08;;;;;;;10.59;62.23;100587.54;1698079;82;25937;-78
2022/05/03 05:23:45;;;;;;;10.00;7.05;;;;;;;10.65;61.87;100588.12;1697560;82;26531;-78
2022/05/03 05:26:11;;;;;;;11.57;7.55;;;;;;;10.68;61.71;100587.77;1696585;82;25955;-79
2022/05/03 05:28:38;;;;;;;10.38;5.72;;;;;;;10.73;61.31;100588.55;1695555;82;28272;-79
2022/05/03 05:31:04;;;;;;;10.38;6.47;;;;;;;10.78;60.65;100592.31;1692511;82;25934;-78
2022/05/03 05:33:30;;;;;;;9.38;5.62;;;;;;;10.87;60.54;100595.70;1693750;84;25776;-78
2022/05/03 05:35:56;;;;;;;9.53;5.87;;;;;;;10.93;60.69;100586.91;1687580;84;26685;-78
2022/05/03 05:38:23;;;;;;;7.70;5.20;;;;;;;11.02;60.68;100592.48;1694614;84;25919;-78
2022/05/03 05:40:50;;;;;;;9.00;5.45;;;;;;;11.07;59.65;100594.09;1697963;82;27623;-78
2022/05/03 05:43:16;;;;;;;9.30;5.92;;;;;;;11.17;60.71;100601.30;1691492;84;25799;-78
2022/05/03 05:45:43;;;;;;;7.40;5.10;;;;;;;11.27;59.93;100596.45;1701647;82;25839;-79
2022/05/03 05:48:09;;;;;;;8.35;4.80;;;;;;;11.35;59.44;100592.83;1698741;82;26173;-79
2022/05/03 05:50:36;;;;;;;8.30;5.05;;;;;;;11.42;58.66;100595.03;1689688;84;25766;-79
2022/05/03 05:55:48;;;;;;;6.05;4.10;;;;;;;11.57;58.72;100600.66;1693876;82;26457;-78
2022/05/03 05:58:14;;;;;;;5.85;3.87;;;;;;;11.65;57.51;100595.69;1682825;84;25754;-77
2022/05/03 06:00:41;;;;;;;7.35;4.00;;;;;;;11.74;57.37;100605.27;1684174;84;25940;-77
2022/05/03 06:03:07;;;;;;;6.08;3.77;;;;;;;11.85;58.26;100597.19;1697522;84;25841;-77
2022/05/03 06:05:33;;;;;;;5.97;3.70;;;;;;;11.93;56.05;100596.53;1683414;84;27448;-78
2022/05/03 06:08:00;;;;;;;6.20;3.80;;;;;;;11.99;56.22;100601.66;1677985;84;25905;-77
2022/05/03 06:10:28;;;;;;;8.38;4.33;;;;;;;12.07;55.66;100596.13;1675149;84;25772;-77
2022/05/03 06:12:54;;;;;;;7.30;4.20;;;;;;;12.11;55.94;100602.75;1677278;84;26022;-79
2022/05/03 06:15:21;;;;;;;7.40;4.40;;;;;;;12.17;55.53;100602.80;1698047;83;26103;-81
2022/05/03 06:17:47;;;;;;;6.65;4.50;;;;;;;12.25;55.88;100603.98;1697676;84;28481;-79
2022/05/03 06:20:13;;;;;;;8.45;4.37;;;;;;;12.34;55.94;100600.12;1697855;84;25974;-79
2022/05/03 06:22:39;;;;;;;4.72;3.50;;;;;;;12.44;54.71;100593.56;1697246;84;25770;-79
2022/05/03 06:25:11;;;;;;;6.28;4.58;;;;;;;12.51;55.17;100601.16;1697910;84;26571;-79
2022/05/03 06:27:38;;;;;;;6.28;4.28;;;;;;;12.61;55.12;100605.63;1697348;84;25922;-79
2022/05/03 06:30:06;;;;;;;7.97;4.33;;;;;;;12.71;54.54;100606.92;1698120;84;27491;-79
2022/05/03 06:32:34;;;;;;;7.22;4.28;;;;;;;12.79;54.50;100613.46;1697810;84;25833;-79
2022/05/03 06:35:00;;;;;;;6.50;4.08;;;;;;;12.85;53.85;100614.53;1698275;84;25759;-79
2022/05/03 06:37:26;;;;;;;8.43;4.12;;;;;;;12.91;54.05;100615.91;1697715;84;26000;-79
2022/05/03 06:39:52;;;;;;;7.33;4.40;;;;;;;12.98;53.67;100606.52;1695373;83;26128;-79
2022/05/03 06:42:19;;;;;;;7.85;4.12;;;;;;;13.05;53.76;100605.53;1693883;83;28331;-77
2022/05/03 06:44:46;;;;;;;5.60;3.70;;;;;;;13.17;53.16;100604.95;1686933;84;25796;-77
2022/05/03 06:47:12;;;;;;;6.17;3.17;;;;;;;13.22;52.24;100611.87;1682430;84;25980;-77
2022/05/03 06:49:40;;;;;;;8.18;3.80;;;;;;;13.26;51.78;100615.84;1681985;85;25837;-77
2022/05/03 06:52:07;;;;;;;5.10;3.45;;;;;;;13.34;52.65;100616.98;1681780;85;25833;-77
2022/05/03 06:54:33;;;;;;;6.62;2.90;;;;;;;13.40;51.79;100617.51;1681984;85;28276;-77
2022/05/03 06:56:59;;;;;;;5.47;3.50;;;;;;;13.47;51.23;100616.47;1681762;84;25729;-77
2022/05/03 06:59:26;;;;;;;6.65;3.70;;;;;;;13.52;50.99;100616.69;1697900;84;25635;-77
2022/05/03 07:01:52;;;;;;;5.58;3.02;;;;;;;13.59;51.22;100612.16;1696627;84;25873;-78
2022/05/03 07:04:18;;;;;;;4.62;3.37;;;;;;;13.69;51.43;100615.77;1696355;84;26052;-78
2022/05/03 07:06:45;;;;;;;10.25;3.70;;;;;;;13.78;50.54;100614.53;1696581;84;27489;-78
2022/05/03 07:09:11;;;;;;;6.05;3.45;;;;;;;13.80;49.11;100618.69;1696703;84;25831;-78
2022/05/03 07:11:37;;;;;;;5.75;3.50;;;;;;;13.82;50.16;100622.50;1696872;84;25293;-77
2022/05/03 07:14:04;;;;;;;5.08;3.33;;;;;;;13.89;50.54;100618.80;1696638;84;26564;-78
2022/05/03 07:16:30;;;;;;;6.78;4.10;;;;;;;13.98;49.91;100619.92;1696434;84;25873;-78
2022/05/03 07:24:26;;;;;;;7.40;3.33;;;;;;;14.20;49.77;100620.02;1696733;84;26075;-77
2022/05/03 07:26:52;;;;;;;8.43;3.83;;;;;;;14.27;49.31;100624.34;1696719;84;26670;-78
2022/05/03 07:29:18;;;;;;;7.58;3.75;;;;;;;14.31;49.62;100624.77;1696251;84;25818;-78
2022/05/03 07:31:45;;;;;;;6.00;4.03;;;;;;;14.41;50.58;100629.23;1696778;84;27563;-78
2022/05/03 07:34:11;;;;;;;9.05;3.75;;;;;;;14.47;47.39;100627.03;1696496;84;25737;-78
2022/05/03 07:36:37;;;;;;;5.15;3.47;;;;;;;14.44;48.04;100622.88;1696705;84;25499;-78
2022/05/03 07:39:03;;;;;;;4.92;3.15;;;;;;;14.48;48.62;100632.72;1696875;84;26769;-79
2022/05/03 07:41:30;;;;;;;4.95;3.77;;;;;;;14.55;48.89;100631.67;1697047;84;25344;-79
2022/05/03 07:43:56;;;;;;;6.37;3.72;;;;;;;14.59;46.39;100634.77;1683477;83;27475;-79
2022/05/03 07:46:22;;;;;;;5.72;3.40;;;;;;;14.59;47.88;100631.55;1704178;82;26270;-79
2022/05/03 07:48:48;;;;;;;7.90;3.45;;;;;;;14.64;46.81;100634.97;1681829;84;25941;-80
2022/05/03 07:51:17;;;;;;;6.22;3.65;;;;;;;14.64;48.49;100637.15;1683048;84;25894;-79
2022/05/03 07:53:43;;;;;;;6.00;3.35;;;;;;;14.67;47.11;100630.48;1678901;84;25854;-79
2022/05/03 07:56:10;;;;;;;9.48;3.77;;;;;;;14.69;47.34;100629.78;1690320;84;27441;-79
2022/05/03 07:58:36;;;;;;;4.05;3.25;;;;;;;14.77;46.41;100643.02;1686500;83;26027;-80
2022/05/03 08:01:07;;;;;;;7.67;3.90;;;;;;;14.76;47.66;100627.03;1698312;83;25930;-79
2022/05/03 08:03:33;;;;;;;7.90;3.60;;;;;;;14.85;46.80;100639.24;1693224;84;26754;-79
2022/05/03 08:06:01;;;;;;;7.37;3.45;;;;;;;14.90;47.87;100631.34;1697159;84;25733;-79
2022/05/03 08:08:28;;;;;;;5.80;3.75;;;;;;;14.99;47.06;100640.31;1698031;84;27649;-79
2022/05/03 08:10:54;;;;;;;5.53;3.70;;;;;;;14.96;45.96;100642.11;1698329;84;25911;-79
2022/05/03 08:13:20;;;;;;;6.15;3.33;;;;;;;14.89;46.03;100633.72;1685939;84;25829;-79
2022/05/03 08:15:47;;;;;;;8.53;3.95;;;;;;;14.95;47.11;100642.33;1685911;84;25764;-79
2022/05/03 08:18:13;;;;;;;7.50;4.25;;;;;;;15.05;47.11;100641.34;1686891;84;26331;-79
2022/05/03 08:20:40;;;;;;;6.28;4.12;;;;;;;15.10;46.37;100649.09;1674993;84;27434;-79
2022/05/03 08:23:08;;;;;;;8.13;3.33;;;;;;;15.07;46.22;100648.70;1697967;84;25966;-79
2022/05/03 08:25:36;;;;;;;5.42;3.70;;;;;;;15.09;46.79;100645.27;1697010;84;25772;-80
2022/05/03 08:28:03;;;;;;;6.83;3.77;;;;;;;15.16;46.50;100642.02;1695415;84;25972;-79
2022/05/03 08:30:29;;;;;;;5.55;3.77;;;;;;;15.21;46.50;100648.94;1697512;84;25769;-80
2022/05/03 08:32:55;;;;;;;6.17;3.75;;;;;;;15.24;44.82;100647.16;1697631;84;27611;-79
2022/05/03 08:35:24;;;;;;;6.62;3.85;;;;;;;15.28;46.31;100649.22;1697561;84;26165;-79
2022/05/03 08:43:19;;;;;;;7.37;4.22;;;;;;;15.37;45.98;100646.58;1684225;84;26611;-77
2022/05/03 08:45:49;;;;;;;6.35;3.62;;;;;;;15.50;45.97;100657.02;1697158;84;27506;-77
2022/05/03 08:48:18;;;;;;;8.63;3.72;;;;;;;15.55;45.70;100653.12;1688679;84;25887;-78
2022/05/03 08:50:46;;;;;;;8.00;3.80;;;;;;;15.54;44.84;100646.92;1686925;84;25820;-78
2022/05/03 08:53:13;;;;;;;6.83;3.60;;;;;;;15.58;45.51;100651.34;1699110;84;26612;-79
2022/05/03 08:55:42;;;;;;;5.58;3.35;;;;;;;15.59;44.46;100647.62;1697852;84;25810;-78
2022/05/03 08:58:09;;;;;;;6.40;3.30;;;;;;;15.58;44.88;100645.44;1697827;84;27462;-79
2022/05/03 09:00:37;;;;;;;5.53;3.02;;;;;;;15.65;46.96;100654.33;1694884;84;25904;-78
2022/05/03 09:03:04;;;;;;;4.70;3.62;;;;;;;15.72;44.50;100645.62;1681824;85;25811;-79
2022/05/03 09:05:30;;;;;;;4.75;3.47;;;;;;;15.72;44.39;100645.62;1682512;85;25759;-79
2022/05/03 09:08:00;;;;;;;4.75;3.70;;;;;;;15.78;45.41;100634.49;1682039;84;25790;-79
2022/05/03 09:10:34;;;;;;;5.53;3.47;;;;;;;15.88;47.04;100646.46;1681506;85;28310;-78
2022/05/03 09:13:23;;;;;;;10.00;3.35;;;;;;;15.97;44.73;100642.96;1681768;85;26162;-77
2022/05/03 09:15:59;;;;;;;5.60;3.77;;;;;;;16.00;44.31;100639.28;1681888;84;25458;-79
2022/05/03 09:18:31;;;;;;;5.47;3.92;;;;;;;16.02;43.77;100639.05;1689255;83;26507;-78
2022/05/03 09:23:47;;;;;;;6.62;4.17;;;;;;;16.03;44.98;100636.67;1693323;84;27522;-79
2022/05/03 09:26:23;;;;;;;10.50;3.50;;;;;;;16.08;44.46;100630.89;1695133;84;25920;-81
2022/05/03 09:29:02;;;;;;;6.20;3.55;;;;;;;16.09;43.69;100628.50;1695034;84;25347;-79
2022/05/03 09:31:42;;;;;;;5.65;3.60;;;;;;;16.17;44.86;100630.08;1696203;84;26253;-80
2022/05/03 09:34:27;;;;;;;6.08;3.85;;;;;;;16.26;44.40;100625.22;1697415;84;44026;-79
2022/05/03 09:36:58;;;;;;;5.03;3.42;;;;;;;16.24;42.09;100615.99;1688523;84;26968;-79
2022/05/03 09:39:38;;;;;;;5.92;3.33;;;;;;;16.18;43.24;100624.48;1697696;84;25752;-78
2022/05/03 09:42:14;;;;;;;6.95;3.62;;;;;;;16.11;44.24;100630.46;1688515;84;25748;-77
2022/05/03 09:44:58;;;;;;;5.87;3.90;;;;;;;16.17;44.24;100624.16;1697163;84;25988;-78
2022/05/03 09:47:28;;;;;;;7.33;3.70;;;;;;;16.28;44.44;100621.77;1697775;84;25991;-78
2022/05/03 09:49:55;;;;;;;4.53;3.75;;;;;;;16.36;44.64;100618.25;1698604;84;28278;-79
2022/05/03 09:52:27;;;;;;;5.03;3.62;;;;;;;16.43;43.26;100630.34;1697731;84;25779;-79
2022/05/03 09:54:59;;;;;;;9.35;4.05;;;;;;;16.25;42.74;100623.58;1697872;84;26615;-79
2022/05/03 09:57:31;;;;;;;7.75;4.03;;;;;;;16.23;43.83;100630.54;1690305;84;25994;-79
2022/05/03 09:59:58;;;;;;;6.62;3.60;;;;;;;16.37;43.48;100616.37;1681962;83;26485;-78
2022/05/03 10:02:28;;;;;;;7.90;3.90;;;;;;;16.52;43.66;100620.41;1677392;84;27469;-77
2022/05/03 10:04:57;;;;;;;5.10;3.95;;;;;;;16.70;42.94;100632.56;1677405;84;25867;-78
2022/05/03 10:07:25;;;;;;;6.75;3.05;;;;;;;16.79;42.89;100619.05;1676003;84;25933;-77
2022/05/03 10:09:52;;;;;;;5.10;3.20;;;;;;;16.85;43.17;100619.48;1698153;84;26036;-77
2022/05/03 10:12:19;;;;;;;8.98;3.70;;;;;;;16.98;42.62;100614.98;1686611;84;25955;-78
2022/05/03 10:14:47;;;;;;;4.65;3.95;;;;;;;17.08;43.02;100596.31;1674676;84;27438;-77
2022/05/03 10:20:46;;;;;;;4.67;3.33;;;;;;;17.18;41.56;100615.01;1691552;84;25874;-78
2022/05/03 10:23:23;;;;;;;6.62;3.42;;;;;;;17.20;41.72;100606.64;1674386;84;26530;-78
2022/05/03 10:26:05;;;;;;;3.75;3.08;;;;;;;17.27;40.61;100610.93;1688441;83;25897;-78
2022/05/03 10:29:07;;;;;;;5.42;3.02;;;;;;;17.30;40.66;100613.16;1687837;83;27613;-77
2022/05/03 10:31:53;;;;;;;4.92;2.90;;;;;;;17.23;38.95;100625.15;1677297;83;25852;-78
2022/05/03 10:34:48;;;;;;;6.10;2.52;;;;;;;17.02;40.09;100616.17;1675637;83;25778;-79
2022/05/03 10:37:17;;;;;;;3.50;2.72;;;;;;;16.98;38.26;100615.27;1687181;83;26670;-78
2022/05/03 10:39:48;;;;;;;7.33;2.55;;;;;;;16.78;39.93;100619.28;1688824;83;25914;-79
2022/05/03 10:42:16;;;;;;;3.05;2.65;;;;;;;16.60;39.34;100618.75;1693700;83;27448;-78
2022/05/03 10:45:03;;;;;;;6.85;2.70;;;;;;;16.44;40.18;100621.20;1682054;83;26509;-78
2022/05/03 10:47:53;;;;;;;6.25;2.87;;;;;;;16.33;40.37;100624.64;1691066;82;25976;-79
2022/05/03 10:50:26;;;;;;;6.12;2.95;;;;;;;16.27;40.80;100616.08;1683169;83;25756;-78
2022/05/03 10:53:07;;;;;;;7.87;3.05;;;;;;;16.24;41.32;100613.28;1680027;83;26521;-78
2022/05/03 10:55:37;;;;;;;4.95;3.00;;;;;;;16.39;41.86;100613.76;1684129;83;27987;-79
2022/05/03 10:58:32;;;;;;;4.47;2.83;;;;;;;16.56;42.13;100611.31;1694707;83;25995;-77
2022/05/03 11:01:20;;;;;;;6.22;2.70;;;;;;;16.67;41.94;100604.64;1692679;83;25879;-77
2022/05/03 11:04:01;;;;;;;3.30;2.40;;;;;;;16.72;41.26;100597.20;1671526;84;26485;-78
2022/05/03 11:06:32;;;;;;;4.95;2.50;;;;;;;16.86;41.15;100600.03;1693819;84;26477;-78
2022/05/03 11:11:46;;;;;;;5.62;2.70;;;;;;;16.87;41.00;100604.40;1697370;84;26187;-78
2022/05/03 11:14:19;;;;;;;6.37;2.58;;;;;;;16.92;42.46;100602.66;1698437;84;25715;-78
2022/05/03 11:17:09;;;;;;;6.47;3.00;;;;;;;17.06;40.80;100589.78;1685224;84;26073;-77
2022/05/03 11:19:55;;;;;;;4.35;2.37;;;;;;;17.10;39.67;100601.80;1698389;84;25281;-78
2022/05/03 11:22:28;;;;;;;6.58;2.50;;;;;;;16.94;41.09;100605.95;1697287;84;27489;-78
2022/05/03 11:25:01;;;;;;;5.08;2.47;;;;;;;16.82;40.26;100606.44;1686916;84;26472;-78
2022/05/03 11:27:26;;;;;;;7.90;2.65;;;;;;;16.80;41.89;100599.07;1697184;84;25781;-79
2022/05/03 11:30:03;;;;;;;3.75;2.20;;;;;;;16.88;41.16;100600.63;1689093;83;26392;-78
2022/05/03 11:32:42;;;;;;;5.97;2.42;;;;;;;16.88;40.98;100600.11;1693901;84;25943;-80
2022/05/03 11:35:18;;;;;;;5.92;2.75;;;;;;;16.83;41.05;100603.17;1670204;85;27530;-79
2022/05/03 11:37:49;;;;;;;4.62;2.15;;;;;;;16.79;41.43;100598.76;1669531;85;25911;-79
2022/05/03 11:40:20;;;;;;;7.28;2.50;;;;;;;16.74;41.00;100595.89;1669417;85;25739;-79
2022/05/03 11:42:47;;;;;;;5.42;2.75;;;;;;;16.70;40.52;100600.11;1670027;84;26577;-79
2022/05/03 11:45:14;;;;;;;4.95;3.30;;;;;;;16.62;40.49;100600.42;1670771;84;25810;-80
2022/05/03 11:47:47;;;;;;;4.75;2.45;;;;;;;16.58;40.38;100599.22;1685831;84;27553;-79
2022/05/03 11:55:59;;;;;;;4.45;3.10;;;;;;;16.49;41.51;100599.19;1696654;84;26395;-77
2022/05/03 11:58:28;;;;;;;3.80;2.47;;;;;;;16.51;41.34;100604.42;1697832;84;25753;-78
2022/05/03 12:00:54;;;;;;;5.95;3.17;;;;;;;16.49;41.33;100601.05;1698092;83;27553;-78
2022/05/03 12:03:21;;;;;;;4.45;2.25;;;;;;;16.47;41.52;100596.40;1697685;84;25868;-78
2022/05/03 12:06:03;;;;;;;2.80;2.42;;;;;;;16.46;41.43;100596.11;1697905;84;25956;-78
2022/05/03 12:08:31;;;;;;;3.15;2.67;;;;;;;16.46;41.78;100592.89;1673519;84;26570;-77
2022/05/03 12:10:58;;;;;;;3.45;2.40;;;;;;;16.45;41.80;100604.74;1699225;83;25575;-78
2022/05/03 12:13:30;;;;;;;3.98;2.50;;;;;;;16.42;40.98;100594.40;1697830;84;27512;-78
2022/05/03 12:16:07;;;;;;;5.85;2.90;;;;;;;16.40;41.42;100592.96;1689023;84;34878;-77